Accueil
METAR-TAF:

METAR-TAF

Aéroports :

Londres-Luton, Angleterre

Aéroport de Londres-Luton

latitude: 51-52N, longitude: 000-22W, altitude: 160 m

Observation

Le bulletin a été fait il y a 25 minutes, à 16:20 UTC
Vent 19 kt de ouest
Température 17°C
Humidité 55%
Pression 1018 hPa
Visibilité 10 km ou plus
Nuages épars à une hauteur de 4300 ft

METAR: EGGW 191620Z AUTO 26019KT 9999 SCT043 17/08 Q1018

Heure: 17:45 (16:45 UTC)

Prévision

Le bulletin a été fait il y a 5 heures et 53 minutes, à 10:52 UTC
Prévision valable du 19 à 12 UTC au 20 à 12 UTC
Vent 14 kt de ouest
Visibilité 10 km ou plus
Nuages épars à une hauteur de 2500 ft
Temporairement
du 19 à 12 UTC au 19 à 19 UTC
Vent 17 kt de ouest avec des rafales jusqu'à 27 kt

TAF: EGGW 191052Z 1912/2012 26014KT 9999 SCT025 TEMPO 1912/1919 27017G27KT

Observations et prévisions météorologiques de plus de 4000 aéroports (messages METAR et TAF).

Les stations disponibles sont représentées par des disques jaunes et rouges sur la carte.

Passer la souris dessus pour voir le nom de la station.

Cliquer dessus pour voir les observations et prévisions météorologiques.

Pour changer de carte: cliquez sur les boutons verts avec une croix noire pour zoomer, sur le bouton vert avec un tiret pour effectuer un zoom arrière, ou sur les flèches vertes pour les cartes adjacentes.


METAR-TAF: